Terminal Aerodrome Forecast
Issued by NWS

Home | Current Version | Previous Version | Text Only | Print | Product List | Glossary On
Versions: 1 2 3 4 5 6 7 8 9 10 11 12
000
FTUS45 KABQ 161120
TAFTCC
TAF
KTCC 161120Z 1612/1712 23011KT P6SM SKC
     FM161600 24015G25KT P6SM SKC
     FM162100 21015G25KT P6SM SCT250
     FM170200 26012KT P6SM BKN200
     FM170600 31012KT P6SM BKN150=

USA.gov is the U.S. government's official web portal to all federal, state and local government web resources and services.